Scroll down
FLIGHT INFORMATION
SAS Scandinavian Airlines

SAS4414

At Arrival Gate

ENTC
 ENSB
DATE: 2019-11-14
GATE: 22
GATE DEPARTURE: 09:40
TAKEOFF: 09:51
DATE: 2019-11-14
GATE: 2
LANDING: 11:20
GATE ARRIVAL: 11:23
FLIGHT DATA
Crew: KYLE RODGERS
Speed: 446 kts Altitude: 35000 ft
Stage Length: 517 nm
Route: 
Block Time: 1.7 Flight Time: 1.5
Fuel Used: 9499 LB
TRACK DATA
50000 FT1000 KT
AIRCRAFT INFORMATION
Aircraft Type: B738
Registration: LN-RCN
SELCAL:  MSN/LN: 28318 / 529
Operator: SAS SCANDINAVIAN AIRLINES
Flights: 11 Block Time: 17.7 Flight Time: 14.5
Fuel Used: 93415 LB
  • DEPARTURE INFORMATION
    Date: 2019-11-14
    Airport: ENTC
    Gate: 22
    Gate Departure: 09:40
    Takeoff: 09:51
    ARRIVAL INFORMATION
    Date: 2019-11-14
    Airport: ENSB
    Gate: 2
    Landing: 11:20
    Gate Arrival: 11:23
  • FLIGHT DATA
    Crew: KYLE RODGERS
    Speed: 446 kts Altitude: 35000 ft
    Stage Length: 279 nm
    Route: 
    Block Time: 1.7 Flight Time: 1.5
    Fuel Used: 9499 LB
  • AIRCRAFT INFORMATION
    Aircraft Type: B738
    Registration: LN-RCN
    SELCAL:  MSN/LN: 28318 / 529
    Operator: SAS Scandinavian Airlines
    Flights: 11 Block Time: 17.7 Flight Time: 14.5
    Fuel Used: 93415 LB

DATALINK LOG | Newest first | Current as of: 2020-09-28 17:35:54
LABEL SEQUENCE CONTENT Dn/Up
QD244511:23 14.9▼ Dn
QC203011:20▼ Dn
GA5127STAND 2▲ Up
GA3743NO GATES AVAILABLE▲ Up
GR3700ENSB --:-- YP/UM 00/00 WCHR/S/C 00/00/00▼ Dn
2U1218ENSB 140950Z 14010KT 9999 BKN044 01/M04 Q1020 RMK WIND 1400FT 12011KT▲ Up
2S1128ENSB▼ Dn
QB511709:51▼ Dn
QA414609:40 24.4▼ Dn
2U3239ENTC 140920Z 14003KT CAVOK M05/M06 Q1005 NOSIG RMK WIND 2600FT 34004KT▲ Up
2S3209ENTC▼ Dn
A32743CLEARED TO ENSB VIA LOMV6A LOMVI P600 INPAR. SQUAWK 7051.▲ Up
B32716ENTC ENSB SAS4414 LN-RCN B ▼ Dn
Q02431[LINK ACK]▲ Up
Q02456[LINK TEST]▼ Dn


AIRCRAFT HISTORY
FLIGHT DATE FLIGHT NO. ORIGIN DESTINATION ROUTE BLOCK TIME FLIGHT TIME FUEL USED (LB) PILOT
2020-09-24SAS35ESNU ESSA ESNU DEDIT SIPRI HMR ESSA1.20.95875BigSwede
2020-08-07SAS25ESNQ ESNU ESNQ TERPA KETEL ESNU10.86146BigSwede
2020-07-30SAS1044ESSA ESNQ ESSA SA551 SA564 SA709 SA710 SA855 LUMAX RESNA OSK RASEN REKMI OSKIR ITVAV VAGAS NQ704 NQ703 RW031.81.49293BigSwede
2020-06-27SAS414EKCH ESSA EKCH KEMAX NEXIL ROXEN DEKIK VEPIP BEDOS NEFYN MIKNA PELUP NILUG ESSA1.316605BigSwede
2020-02-20SAS1407ESSA EKCH 1.517235BigSwede
2020-01-24SAS1045ESNQ ESSA 1.81.47391BigSwede
2019-12-07SAS1207ENGM ESNQ 1.71.59123Douglas Morlan
2019-11-14SAS4431ENTC ENGM 2.5212569Kyle Rodgers
2019-11-14SAS4425ENSB ENTC 1.71.49089Kyle Rodgers
2019-11-14SAS4414ENTC ENSB 1.71.59499Kyle Rodgers
2019-11-14SAS4406ENGM ENTC 21.610589Kyle Rodgers